Time;durP1;ratioP1;P1;durP2;ratioP2;P2;SDS_P1;SDS_P2;PMS_P1;PMS_P2;Temp;Humidity;BMP_temperature;BMP_pressure;BME280_temperature;BME280_humidity;BME280_pressure;Samples;Min_cycle;Max_cycle;Signal;HPM_P1;HPM_P2
2023/11/22 00:02:28;;;;;;;;;;;;;;;;;;4935343;28;19915;-71
2023/11/22 00:04:54;;;;;;;;;;;;;;;;;;4936764;28;19926;-71
2023/11/22 00:07:21;;;;;;;;;;;;;;;;;;4938432;28;19984;-70
2023/11/22 00:09:47;;;;;;;;;;;;;;;;;;4919186;28;19925;-70
2023/11/22 00:12:13;;;;;;;;;;;;;;;;;;4939030;28;19922;-70
2023/11/22 00:14:39;;;;;;;;;;;;;;;;;;4920657;28;20380;-71
2023/11/22 00:17:05;;;;;;;;;;;;;;;;;;4937919;28;19925;-71
2023/11/22 00:19:31;;;;;;;;;;;;;;;;;;4939444;28;20673;-71
2023/11/22 00:21:57;;;;;;;;;;;;;;;;;;4941010;28;20427;-71
2023/11/22 00:24:22;;;;;;;;;;;;;;;;;;4927434;28;20032;-71
2023/11/22 00:26:49;;;;;;;;;;;;;;;;;;4907478;28;20021;-71
2023/11/22 00:29:15;;;;;;;;;;;;;;;;;;4922579;28;19918;-71
2023/11/22 00:31:41;;;;;;;;;;;;;;;;;;4929467;28;19993;-70
2023/11/22 00:34:07;;;;;;;;;;;;;;;;;;4949540;28;19925;-71
2023/11/22 00:36:34;;;;;;;;;;;;;;;;;;4926678;28;19918;-70
2023/11/22 00:39:00;;;;;;;;;;;;;;;;;;4944373;28;19953;-71
2023/11/22 00:41:25;;;;;;;;;;;;;;;;;;4928522;28;20066;-71
2023/11/22 00:43:51;;;;;;;;;;;;;;;;;;4949250;28;19918;-71
2023/11/22 00:46:17;;;;;;;;;;;;;;;;;;4946154;28;19918;-71
2023/11/22 00:48:43;;;;;;;;;;;;;;;;;;4945120;28;19923;-72
2023/11/22 00:51:10;;;;;;;;;;;;;;;;;;4946189;28;20336;-71
2023/11/22 00:53:36;;;;;;;;;;;;;;;;;;4945465;28;20396;-71
2023/11/22 00:56:02;;;;;;;;;;;;;;;;;;4933518;28;19929;-71
2023/11/22 00:58:28;;;;;;;;;;;;;;;;;;4946789;28;20465;-71
2023/11/22 01:00:54;;;;;;;;;;;;;;;;;;4932141;28;19918;-71
2023/11/22 01:03:20;;;;;;;;;;;;;;;;;;4905580;28;19929;-71
2023/11/22 01:05:46;;;;;;;;;;;;;;;;;;4907736;28;19922;-71
2023/11/22 01:08:13;;;;;;;;;;;;;;;;;;4906402;28;20610;-71
2023/11/22 01:10:39;;;;;;;;;;;;;;;;;;4905018;28;20651;-71
2023/11/22 01:13:05;;;;;;;;;;;;;;;;;;4907382;28;19919;-73
2023/11/22 01:15:31;;;;;;;;;;;;;;;;;;4901161;28;19961;-71
2023/11/22 01:17:57;;;;;;;;;;;;;;;;;;4906863;28;19985;-72
2023/11/22 01:20:23;;;;;;;;;;;;;;;;;;4893848;28;20694;-72
2023/11/22 01:22:49;;;;;;;;;;;;;;;;;;4905942;28;21271;-71
2023/11/22 01:25:15;;;;;;;;;;;;;;;;;;4908262;28;19914;-71
2023/11/22 01:27:41;;;;;;;;;;;;;;;;;;4902507;28;20960;-72
2023/11/22 01:30:07;;;;;;;;;;;;;;;;;;4906401;28;19929;-74
2023/11/22 01:32:34;;;;;;;;;;;;;;;;;;4903989;28;19918;-72
2023/11/22 01:35:00;;;;;;;;;;;;;;;;;;4908874;28;19960;-73
2023/11/22 01:37:27;;;;;;;;;;;;;;;;;;4905463;28;20013;-73
2023/11/22 01:39:54;;;;;;;;;;;;;;;;;;4932828;28;19918;-74
2023/11/22 01:42:20;;;;;;;;;;;;;;;;;;4945562;28;19950;-74
2023/11/22 01:44:47;;;;;;;;;;;;;;;;;;4944329;28;20787;-73
2023/11/22 01:47:14;;;;;;;;;;;;;;;;;;4944699;28;20443;-72
2023/11/22 01:49:40;;;;;;;;;;;;;;;;;;4926292;28;20235;-72
2023/11/22 01:52:05;;;;;;;;;;;;;;;;;;4946651;28;20360;-74
2023/11/22 01:54:31;;;;;;;;;;;;;;;;;;4940250;28;20381;-74
2023/11/22 01:56:57;;;;;;;;;;;;;;;;;;4946658;28;20698;-75
2023/11/22 01:59:24;;;;;;;;;;;;;;;;;;4946755;28;20356;-74
2023/11/22 02:01:50;;;;;;;;;;;;;;;;;;4933682;28;20142;-75
2023/11/22 02:04:16;;;;;;;;;;;;;;;;;;4932563;28;19933;-74
2023/11/22 02:06:42;;;;;;;;;;;;;;;;;;4926390;28;20353;-74
2023/11/22 02:09:13;;;;;;;;;;;;;;;;;;4929053;28;19930;-74
2023/11/22 02:11:39;;;;;;;;;;;;;;;;;;4928456;28;20414;-75
2023/11/22 02:14:07;;;;;;;;;;;;;;;;;;4926740;28;19918;-74
2023/11/22 02:16:32;;;;;;;;;;;;;;;;;;4926527;28;20384;-74
2023/11/22 02:18:58;;;;;;;;;;;;;;;;;;4923180;28;19918;-74
2023/11/22 02:21:24;;;;;;;;;;;;;;;;;;4923335;28;20337;-75
2023/11/22 02:23:50;;;;;;;;;;;;;;;;;;4929013;28;20061;-75
2023/11/22 02:26:17;;;;;;;;;;;;;;;;;;4925675;28;20028;-75
2023/11/22 02:28:43;;;;;;;;;;;;;;;;;;4927457;28;19925;-75
2023/11/22 02:31:09;;;;;;;;;;;;;;;;;;4925443;28;19922;-75
2023/11/22 02:33:35;;;;;;;;;;;;;;;;;;4922906;28;20029;-75
2023/11/22 02:36:01;;;;;;;;;;;;;;;;;;4924882;28;19922;-74
2023/11/22 02:38:27;;;;;;;;;;;;;;;;;;4923202;28;20036;-74
2023/11/22 02:40:53;;;;;;;;;;;;;;;;;;4929096;28;20587;-74
2023/11/22 02:43:20;;;;;;;;;;;;;;;;;;4926436;28;20009;-74
2023/11/22 02:45:46;;;;;;;;;;;;;;;;;;4926520;28;19926;-74
2023/11/22 02:48:13;;;;;;;;;;;;;;;;;;4932552;28;19918;-74
2023/11/22 02:50:39;;;;;;;;;;;;;;;;;;4925171;28;20367;-74
2023/11/22 02:53:05;;;;;;;;;;;;;;;;;;4926718;28;19969;-74
2023/11/22 02:55:31;;;;;;;;;;;;;;;;;;4924117;28;19919;-74
2023/11/22 02:57:57;;;;;;;;;;;;;;;;;;4926087;28;20539;-73
2023/11/22 03:00:25;;;;;;;;;;;;;;;;;;4927296;28;19923;-73
2023/11/22 03:02:54;;;;;;;;;;;;;;;;;;4928993;28;19931;-73
2023/11/22 03:05:20;;;;;;;;;;;;;;;;;;4927237;28;20348;-73
2023/11/22 03:07:46;;;;;;;;;;;;;;;;;;4920097;28;19981;-73
2023/11/22 03:10:12;;;;;;;;;;;;;;;;;;4928291;28;19993;-74
2023/11/22 03:12:38;;;;;;;;;;;;;;;;;;4925690;28;20636;-74
2023/11/22 03:15:05;;;;;;;;;;;;;;;;;;4927384;28;19918;-73
2023/11/22 03:17:31;;;;;;;;;;;;;;;;;;4923967;28;20401;-73
2023/11/22 03:19:56;;;;;;;;;;;;;;;;;;4926883;28;20157;-74
2023/11/22 03:22:23;;;;;;;;;;;;;;;;;;4924562;28;19926;-74
2023/11/22 03:24:49;;;;;;;;;;;;;;;;;;4925412;28;20395;-74
2023/11/22 03:27:15;;;;;;;;;;;;;;;;;;4923353;28;19918;-73
2023/11/22 03:29:41;;;;;;;;;;;;;;;;;;4923636;28;20432;-74
2023/11/22 03:32:07;;;;;;;;;;;;;;;;;;4929504;28;19923;-73
2023/11/22 03:34:33;;;;;;;;;;;;;;;;;;4921250;28;20006;-73
2023/11/22 03:36:59;;;;;;;;;;;;;;;;;;4926325;28;20318;-74
2023/11/22 03:39:25;;;;;;;;;;;;;;;;;;4922931;28;19922;-75
2023/11/22 03:41:51;;;;;;;;;;;;;;;;;;4927661;28;19961;-75
2023/11/22 03:44:17;;;;;;;;;;;;;;;;;;4925308;28;20034;-74
2023/11/22 03:46:42;;;;;;;;;;;;;;;;;;4924666;28;19946;-74
2023/11/22 03:49:08;;;;;;;;;;;;;;;;;;4925627;28;19919;-74
2023/11/22 03:51:35;;;;;;;;;;;;;;;;;;4924778;28;19918;-74
2023/11/22 03:54:02;;;;;;;;;;;;;;;;;;4924811;28;20021;-74
2023/11/22 03:56:28;;;;;;;;;;;;;;;;;;4926516;28;19937;-74
2023/11/22 03:58:54;;;;;;;;;;;;;;;;;;4922200;28;20331;-74
2023/11/22 04:01:20;;;;;;;;;;;;;;;;;;4925336;28;19927;-74
2023/11/22 04:03:46;;;;;;;;;;;;;;;;;;4927648;28;19925;-74
2023/11/22 04:06:12;;;;;;;;;;;;;;;;;;4929170;28;19930;-74
2023/11/22 04:08:38;;;;;;;;;;;;;;;;;;4924296;28;19915;-73
2023/11/22 04:11:05;;;;;;;;;;;;;;;;;;4949845;28;19926;-74
2023/11/22 04:13:31;;;;;;;;;;;;;;;;;;4939969;28;20029;-74
2023/11/22 04:15:57;;;;;;;;;;;;;;;;;;4945238;28;19930;-74
2023/11/22 04:18:24;;;;;;;;;;;;;;;;;;4947222;28;20059;-74
2023/11/22 04:20:51;;;;;;;;;;;;;;;;;;4943896;28;19928;-74
2023/11/22 04:23:17;;;;;;;;;;;;;;;;;;4929759;28;19922;-74
2023/11/22 04:25:43;;;;;;;;;;;;;;;;;;4923295;28;20247;-74
2023/11/22 04:28:09;;;;;;;;;;;;;;;;;;4943654;28;20671;-74
2023/11/22 04:30:35;;;;;;;;;;;;;;;;;;4943381;28;19922;-74
2023/11/22 04:33:01;;;;;;;;;;;;;;;;;;4941056;28;19923;-75
2023/11/22 04:35:27;;;;;;;;;;;;;;;;;;4926618;28;20385;-74
2023/11/22 04:37:56;;;;;;;;;;;;;;;;;;4941480;28;19961;-75
2023/11/22 04:40:22;;;;;;;;;;;;;;;;;;4947035;28;19984;-74
2023/11/22 04:42:48;;;;;;;;;;;;;;;;;;4944612;28;19930;-75
2023/11/22 04:45:14;;;;;;;;;;;;;;;;;;4929765;28;19965;-75
2023/11/22 04:47:40;;;;;;;;;;;;;;;;;;4939085;28;20006;-76
2023/11/22 04:50:06;;;;;;;;;;;;;;;;;;4931988;28;19966;-74
2023/11/22 04:52:32;;;;;;;;;;;;;;;;;;4943467;28;19918;-74
2023/11/22 04:54:58;;;;;;;;;;;;;;;;;;4929578;28;19922;-75
2023/11/22 04:57:24;;;;;;;;;;;;;;;;;;4929068;28;19985;-75
2023/11/22 04:59:50;;;;;;;;;;;;;;;;;;4942544;28;20455;-74
2023/11/22 05:02:16;;;;;;;;;;;;;;;;;;4944935;28;19917;-75
2023/11/22 05:04:42;;;;;;;;;;;;;;;;;;4928164;28;19933;-74
2023/11/22 05:07:08;;;;;;;;;;;;;;;;;;4951560;28;19977;-74
2023/11/22 05:09:34;;;;;;;;;;;;;;;;;;4930653;28;19926;-74
2023/11/22 05:12:00;;;;;;;;;;;;;;;;;;4949870;28;19922;-74
2023/11/22 05:14:26;;;;;;;;;;;;;;;;;;4930168;28;19918;-75
2023/11/22 05:16:52;;;;;;;;;;;;;;;;;;4935327;28;19972;-74
2023/11/22 05:19:18;;;;;;;;;;;;;;;;;;4948640;28;19922;-75
2023/11/22 05:21:44;;;;;;;;;;;;;;;;;;4928576;28;20826;-75
2023/11/22 05:24:10;;;;;;;;;;;;;;;;;;4935517;28;20292;-75
2023/11/22 05:26:37;;;;;;;;;;;;;;;;;;4941302;28;19918;-74
2023/11/22 05:29:04;;;;;;;;;;;;;;;;;;4945749;28;20471;-74
2023/11/22 05:31:30;;;;;;;;;;;;;;;;;;4945002;28;20324;-75
2023/11/22 05:33:56;;;;;;;;;;;;;;;;;;4944146;28;20412;-74
2023/11/22 05:36:22;;;;;;;;;;;;;;;;;;4947325;28;19918;-75
2023/11/22 05:38:49;;;;;;;;;;;;;;;;;;4943547;28;20398;-75
2023/11/22 05:41:15;;;;;;;;;;;;;;;;;;4934874;28;20255;-74
2023/11/22 05:43:42;;;;;;;;;;;;;;;;;;4940425;28;19917;-74
2023/11/22 05:46:08;;;;;;;;;;;;;;;;;;4930530;28;19932;-74
2023/11/22 05:48:35;;;;;;;;;;;;;;;;;;4929101;28;20494;-74
2023/11/22 05:51:01;;;;;;;;;;;;;;;;;;4928316;28;19922;-74
2023/11/22 05:53:27;;;;;;;;;;;;;;;;;;4924285;28;19979;-74
2023/11/22 05:55:53;;;;;;;;;;;;;;;;;;4932336;28;20428;-75
2023/11/22 05:58:18;;;;;;;;;;;;;;;;;;4948308;28;20025;-75
2023/11/22 06:00:44;;;;;;;;;;;;;;;;;;4945368;28;22039;-75
2023/11/22 06:03:10;;;;;;;;;;;;;;;;;;4931487;28;19969;-75
2023/11/22 06:05:36;;;;;;;;;;;;;;;;;;4941454;28;20294;-75
2023/11/22 06:08:02;;;;;;;;;;;;;;;;;;4946256;28;20570;-75
2023/11/22 06:10:28;;;;;;;;;;;;;;;;;;4926910;28;19926;-75
2023/11/22 06:12:54;;;;;;;;;;;;;;;;;;4945316;28;20562;-75
2023/11/22 06:15:22;;;;;;;;;;;;;;;;;;4947240;28;19980;-75
2023/11/22 06:17:51;;;;;;;;;;;;;;;;;;4941134;28;20190;-75
2023/11/22 06:20:17;;;;;;;;;;;;;;;;;;4931311;28;19929;-75
2023/11/22 06:22:44;;;;;;;;;;;;;;;;;;4946345;28;20250;-75
2023/11/22 06:25:13;;;;;;;;;;;;;;;;;;4929020;28;20261;-74
2023/11/22 06:27:40;;;;;;;;;;;;;;;;;;4940871;28;20304;-74
2023/11/22 06:30:12;;;;;;;;;;;;;;;;;;4929939;28;20335;-75
2023/11/22 06:32:42;;;;;;;;;;;;;;;;;;4921635;28;20203;-75
2023/11/22 06:35:08;;;;;;;;;;;;;;;;;;4943955;28;20257;-75
2023/11/22 06:37:34;;;;;;;;;;;;;;;;;;4929371;28;20025;-75
2023/11/22 06:40:00;;;;;;;;;;;;;;;;;;4942761;28;20025;-74
2023/11/22 06:42:26;;;;;;;;;;;;;;;;;;4941413;28;20444;-75
2023/11/22 06:44:53;;;;;;;;;;;;;;;;;;4930601;28;20103;-75
2023/11/22 06:47:19;;;;;;;;;;;;;;;;;;4931590;28;20013;-77
2023/11/22 06:49:45;;;;;;;;;;;;;;;;;;4941910;28;19948;-77
2023/11/22 06:52:11;;;;;;;;;;;;;;;;;;4944098;28;19930;-76
2023/11/22 06:54:36;;;;;;;;;;;;;;;;;;4939598;28;19918;-76
2023/11/22 06:57:02;;;;;;;;;;;;;;;;;;4942761;28;19926;-76
2023/11/22 06:59:28;;;;;;;;;;;;;;;;;;4940395;28;20304;-76
2023/11/22 07:01:55;;;;;;;;;;;;;;;;;;4933217;28;19926;-76
2023/11/22 07:04:22;;;;;;;;;;;;;;;;;;4945540;28;20021;-75
2023/11/22 07:06:48;;;;;;;;;;;;;;;;;;4926345;28;19933;-75
2023/11/22 07:09:14;;;;;;;;;;;;;;;;;;4929808;28;19918;-75
2023/11/22 07:11:41;;;;;;;;;;;;;;;;;;4930062;28;19921;-75
2023/11/22 07:14:07;;;;;;;;;;;;;;;;;;4931458;28;19929;-75
2023/11/22 07:16:33;;;;;;;;;;;;;;;;;;4945456;28;19922;-76
2023/11/22 07:19:00;;;;;;;;;;;;;;;;;;4952957;28;20382;-74
2023/11/22 07:21:26;;;;;;;;;;;;;;;;;;4933584;28;19918;-77
2023/11/22 07:23:52;;;;;;;;;;;;;;;;;;4952566;28;19918;-74
2023/11/22 07:26:19;;;;;;;;;;;;;;;;;;4947686;28;19918;-74
2023/11/22 07:28:45;;;;;;;;;;;;;;;;;;4946951;28;20628;-74
2023/11/22 07:31:11;;;;;;;;;;;;;;;;;;4937493;28;19972;-74
2023/11/22 07:33:38;;;;;;;;;;;;;;;;;;4931225;28;19919;-74
2023/11/22 07:36:04;;;;;;;;;;;;;;;;;;4930667;28;19986;-74
2023/11/22 07:38:31;;;;;;;;;;;;;;;;;;4931702;28;19921;-74
2023/11/22 07:40:57;;;;;;;;;;;;;;;;;;4930165;28;19926;-74
2023/11/22 07:43:23;;;;;;;;;;;;;;;;;;4939933;28;19918;-74
2023/11/22 07:45:50;;;;;;;;;;;;;;;;;;4951370;28;19945;-75
2023/11/22 07:48:16;;;;;;;;;;;;;;;;;;4948976;28;20036;-75
2023/11/22 07:50:48;;;;;;;;;;;;;;;;;;4945717;28;20416;-75
2023/11/22 07:53:14;;;;;;;;;;;;;;;;;;4931362;28;19965;-76
2023/11/22 07:55:41;;;;;;;;;;;;;;;;;;4942608;28;20013;-75
2023/11/22 07:58:07;;;;;;;;;;;;;;;;;;4946052;28;19918;-74
2023/11/22 08:00:42;;;;;;;;;;;;;;;;;;4932494;28;19925;-74
2023/11/22 08:03:09;;;;;;;;;;;;;;;;;;4929894;28;19925;-73
2023/11/22 08:05:37;;;;;;;;;;;;;;;;;;4930075;28;19938;-75
2023/11/22 08:08:06;;;;;;;;;;;;;;;;;;4946750;28;20223;-76
2023/11/22 08:10:32;;;;;;;;;;;;;;;;;;4938151;28;19921;-76
2023/11/22 08:12:58;;;;;;;;;;;;;;;;;;4929223;28;19919;-75
2023/11/22 08:15:24;;;;;;;;;;;;;;;;;;4947562;28;20005;-75
2023/11/22 08:17:50;;;;;;;;;;;;;;;;;;4943718;28;20006;-76
2023/11/22 08:20:17;;;;;;;;;;;;;;;;;;4942367;28;20218;-75
2023/11/22 08:22:45;;;;;;;;;;;;;;;;;;4939660;28;19918;-75
2023/11/22 08:25:15;;;;;;;;;;;;;;;;;;4944627;28;20661;-75
2023/11/22 08:27:41;;;;;;;;;;;;;;;;;;4941872;28;19919;-75
2023/11/22 08:30:09;;;;;;;;;;;;;;;;;;4930960;28;19933;-74
2023/11/22 08:32:35;;;;;;;;;;;;;;;;;;4942006;28;19953;-75
2023/11/22 08:35:04;;;;;;;;;;;;;;;;;;4942000;28;20068;-75
2023/11/22 08:37:34;;;;;;;;;;;;;;;;;;4937208;28;19918;-75
2023/11/22 08:40:00;;;;;;;;;;;;;;;;;;4932006;28;19946;-75
2023/11/22 08:42:26;;;;;;;;;;;;;;;;;;4947941;28;20021;-75
2023/11/22 08:44:52;;;;;;;;;;;;;;;;;;4934271;28;19919;-75
2023/11/22 08:47:18;;;;;;;;;;;;;;;;;;4933938;28;20432;-75
2023/11/22 08:49:44;;;;;;;;;;;;;;;;;;4946050;28;24665;-75
2023/11/22 08:52:11;;;;;;;;;;;;;;;;;;4947566;28;20353;-75
2023/11/22 08:54:37;;;;;;;;;;;;;;;;;;4930904;28;20008;-75
2023/11/22 08:57:03;;;;;;;;;;;;;;;;;;4947287;28;20529;-75
2023/11/22 08:59:29;;;;;;;;;;;;;;;;;;4943619;28;20206;-76
2023/11/22 09:01:55;;;;;;;;;;;;;;;;;;4944510;28;19929;-75
2023/11/22 09:04:23;;;;;;;;;;;;;;;;;;4947137;28;19931;-76
2023/11/22 09:06:50;;;;;;;;;;;;;;;;;;4934012;28;20347;-75
2023/11/22 09:09:16;;;;;;;;;;;;;;;;;;4946043;28;19918;-76
2023/11/22 09:11:42;;;;;;;;;;;;;;;;;;4943236;28;20036;-75
2023/11/22 09:14:10;;;;;;;;;;;;;;;;;;4944301;28;19918;-76
2023/11/22 09:16:36;;;;;;;;;;;;;;;;;;4929573;28;19918;-76
2023/11/22 09:19:03;;;;;;;;;;;;;;;;;;4936756;28;19918;-75
2023/11/22 09:21:29;;;;;;;;;;;;;;;;;;4927219;28;19977;-75
2023/11/22 09:23:55;;;;;;;;;;;;;;;;;;4946144;28;19925;-75
2023/11/22 09:26:21;;;;;;;;;;;;;;;;;;4946630;28;19960;-75
2023/11/22 09:28:47;;;;;;;;;;;;;;;;;;4945923;28;19918;-75
2023/11/22 09:31:17;;;;;;;;;;;;;;;;;;4951440;28;19921;-74
2023/11/22 09:33:43;;;;;;;;;;;;;;;;;;4940044;28;19919;-75
2023/11/22 09:36:10;;;;;;;;;;;;;;;;;;4943336;28;19997;-74
2023/11/22 09:38:37;;;;;;;;;;;;;;;;;;4928541;28;19919;-76
2023/11/22 09:41:03;;;;;;;;;;;;;;;;;;4945264;28;19922;-75
2023/11/22 09:43:29;;;;;;;;;;;;;;;;;;4930246;28;20001;-76
2023/11/22 09:45:55;;;;;;;;;;;;;;;;;;4930516;28;19927;-76
2023/11/22 09:48:23;;;;;;;;;;;;;;;;;;4943089;28;20065;-75
2023/11/22 09:50:48;;;;;;;;;;;;;;;;;;4928004;28;20272;-75
2023/11/22 09:53:14;;;;;;;;;;;;;;;;;;4927095;28;19918;-75
2023/11/22 09:55:42;;;;;;;;;;;;;;;;;;4940407;28;19922;-75
2023/11/22 09:58:10;;;;;;;;;;;;;;;;;;4941963;28;19965;-75
2023/11/22 10:00:36;;;;;;;;;;;;;;;;;;4930701;28;20357;-75
2023/11/22 10:03:03;;;;;;;;;;;;;;;;;;4942143;28;19932;-75
2023/11/22 10:05:29;;;;;;;;;;;;;;;;;;4943336;28;20257;-75
2023/11/22 10:07:55;;;;;;;;;;;;;;;;;;4943751;28;19918;-75
2023/11/22 10:10:26;;;;;;;;;;;;;;;;;;4940852;28;19952;-75
2023/11/22 10:12:52;;;;;;;;;;;;;;;;;;4940170;28;19922;-75
2023/11/22 10:15:22;;;;;;;;;;;;;;;;;;4932546;28;19925;-76
2023/11/22 10:17:48;;;;;;;;;;;;;;;;;;4943619;28;19925;-75
2023/11/22 10:20:14;;;;;;;;;;;;;;;;;;4932374;28;20308;-75
2023/11/22 10:22:40;;;;;;;;;;;;;;;;;;4946783;28;19940;-75
2023/11/22 10:25:08;;;;;;;;;;;;;;;;;;4944957;28;20617;-75
2023/11/22 10:27:34;;;;;;;;;;;;;;;;;;4924213;28;19925;-75
2023/11/22 10:30:00;;;;;;;;;;;;;;;;;;4943742;28;19922;-75
2023/11/22 10:32:26;;;;;;;;;;;;;;;;;;4928259;28;20345;-76
2023/11/22 10:34:52;;;;;;;;;;;;;;;;;;4930938;28;20005;-75
2023/11/22 10:37:19;;;;;;;;;;;;;;;;;;4931484;28;19997;-75
2023/11/22 10:39:45;;;;;;;;;;;;;;;;;;4939830;28;20739;-75
2023/11/22 10:42:11;;;;;;;;;;;;;;;;;;4945324;28;19918;-74
2023/11/22 10:44:38;;;;;;;;;;;;;;;;;;4946201;28;20341;-74
2023/11/22 10:47:04;;;;;;;;;;;;;;;;;;4944135;28;19926;-75
2023/11/22 10:49:31;;;;;;;;;;;;;;;;;;4946035;28;19917;-74
2023/11/22 10:51:57;;;;;;;;;;;;;;;;;;4926752;28;19925;-74
2023/11/22 10:54:24;;;;;;;;;;;;;;;;;;4934831;28;20226;-74
2023/11/22 10:56:50;;;;;;;;;;;;;;;;;;4929456;28;20355;-75
2023/11/22 10:59:17;;;;;;;;;;;;;;;;;;4943321;28;19960;-75
2023/11/22 11:01:43;;;;;;;;;;;;;;;;;;4926503;28;19918;-75
2023/11/22 11:04:11;;;;;;;;;;;;;;;;;;4929125;28;20396;-75
2023/11/22 11:06:37;;;;;;;;;;;;;;;;;;4924725;28;20179;-76
2023/11/22 11:09:08;;;;;;;;;;;;;;;;;;4929246;28;19918;-75
2023/11/22 11:11:34;;;;;;;;;;;;;;;;;;4927240;28;20442;-75
2023/11/22 11:14:01;;;;;;;;;;;;;;;;;;4927037;28;19922;-75
2023/11/22 11:16:27;;;;;;;;;;;;;;;;;;4926381;28;20676;-74
2023/11/22 11:18:53;;;;;;;;;;;;;;;;;;4929055;28;19929;-75
2023/11/22 11:21:19;;;;;;;;;;;;;;;;;;4926372;28;20413;-75
2023/11/22 11:23:44;;;;;;;;;;;;;;;;;;4924598;28;21002;-74
2023/11/22 11:26:10;;;;;;;;;;;;;;;;;;4927821;28;19922;-75
2023/11/22 11:28:36;;;;;;;;;;;;;;;;;;4924476;28;19926;-75
2023/11/22 11:31:03;;;;;;;;;;;;;;;;;;4924097;28;20107;-75
2023/11/22 11:33:29;;;;;;;;;;;;;;;;;;4921165;28;19982;-75
2023/11/22 11:35:55;;;;;;;;;;;;;;;;;;4928960;28;19933;-76
2023/11/22 11:38:24;;;;;;;;;;;;;;;;;;4925732;28;20274;-76
2023/11/22 11:40:50;;;;;;;;;;;;;;;;;;4923932;28;20013;-76
2023/11/22 11:43:16;;;;;;;;;;;;;;;;;;4920260;28;19918;-74
2023/11/22 11:45:46;;;;;;;;;;;;;;;;;;4922261;28;19919;-76
2023/11/22 11:48:12;;;;;;;;;;;;;;;;;;4927134;28;19918;-74
2023/11/22 11:50:38;;;;;;;;;;;;;;;;;;4921672;28;19926;-75
2023/11/22 11:53:04;;;;;;;;;;;;;;;;;;4921465;28;19926;-75
2023/11/22 11:55:30;;;;;;;;;;;;;;;;;;4922149;28;19922;-75
2023/11/22 11:57:56;;;;;;;;;;;;;;;;;;4924269;28;19925;-75
2023/11/22 12:00:24;;;;;;;;;;;;;;;;;;4922772;28;19930;-76
2023/11/22 12:02:50;;;;;;;;;;;;;;;;;;4925000;28;20351;-76
2023/11/22 12:05:16;;;;;;;;;;;;;;;;;;4926534;28;19927;-74
2023/11/22 12:07:42;;;;;;;;;;;;;;;;;;4920691;28;19923;-75
2023/11/22 12:10:08;;;;;;;;;;;;;;;;;;4924136;28;19929;-75
2023/11/22 12:12:34;;;;;;;;;;;;;;;;;;4920361;28;19919;-76
2023/11/22 12:15:00;;;;;;;;;;;;;;;;;;4924657;28;19914;-75
2023/11/22 12:17:27;;;;;;;;;;;;;;;;;;4925261;28;19926;-76
2023/11/22 12:19:53;;;;;;;;;;;;;;;;;;4925382;28;19919;-76
2023/11/22 12:22:19;;;;;;;;;;;;;;;;;;4927611;28;19973;-76
2023/11/22 12:24:48;;;;;;;;;;;;;;;;;;4923511;28;20005;-76
2023/11/22 12:27:14;;;;;;;;;;;;;;;;;;4925751;28;20002;-76
2023/11/22 12:29:41;;;;;;;;;;;;;;;;;;4923460;28;19926;-77
2023/11/22 12:32:07;;;;;;;;;;;;;;;;;;4926403;28;19930;-76
2023/11/22 12:34:33;;;;;;;;;;;;;;;;;;4926262;28;19925;-76
2023/11/22 12:36:59;;;;;;;;;;;;;;;;;;4929077;28;20417;-76
2023/11/22 12:39:26;;;;;;;;;;;;;;;;;;4929180;28;19925;-76
2023/11/22 12:41:52;;;;;;;;;;;;;;;;;;4940276;28;20579;-76
2023/11/22 12:44:18;;;;;;;;;;;;;;;;;;4927807;28;19929;-76
2023/11/22 12:46:43;;;;;;;;;;;;;;;;;;4923087;28;20440;-76
2023/11/22 12:49:10;;;;;;;;;;;;;;;;;;4927452;28;20033;-75
2023/11/22 12:51:36;;;;;;;;;;;;;;;;;;4920693;28;19982;-76
2023/11/22 12:54:02;;;;;;;;;;;;;;;;;;4929231;28;19930;-76
2023/11/22 12:56:29;;;;;;;;;;;;;;;;;;4920825;28;20291;-76
2023/11/22 12:58:55;;;;;;;;;;;;;;;;;;4926781;28;19926;-76
2023/11/22 13:01:21;;;;;;;;;;;;;;;;;;4925851;28;19918;-77
2023/11/22 13:03:49;;;;;;;;;;;;;;;;;;4929824;28;19922;-76
2023/11/22 13:06:17;;;;;;;;;;;;;;;;;;4949457;28;19927;-76
2023/11/22 13:08:43;;;;;;;;;;;;;;;;;;4942362;28;19997;-75
2023/11/22 13:11:09;;;;;;;;;;;;;;;;;;4931000;28;19945;-75
2023/11/22 13:13:35;;;;;;;;;;;;;;;;;;4927510;28;19918;-74
2023/11/22 13:16:01;;;;;;;;;;;;;;;;;;4943683;28;19923;-75
2023/11/22 13:18:28;;;;;;;;;;;;;;;;;;4940751;28;19922;-75
2023/11/22 13:20:54;;;;;;;;;;;;;;;;;;4944806;28;19918;-75
2023/11/22 13:23:20;;;;;;;;;;;;;;;;;;4929516;28;20064;-74
2023/11/22 13:25:46;;;;;;;;;;;;;;;;;;4925907;28;20535;-75
2023/11/22 13:28:13;;;;;;;;;;;;;;;;;;4930457;28;19918;-76
2023/11/22 13:30:39;;;;;;;;;;;;;;;;;;4939166;28;19922;-75
2023/11/22 13:33:05;;;;;;;;;;;;;;;;;;4942692;28;20104;-75
2023/11/22 13:35:31;;;;;;;;;;;;;;;;;;4923772;28;19991;-75
2023/11/22 13:37:57;;;;;;;;;;;;;;;;;;4946077;28;19918;-75
2023/11/22 13:40:25;;;;;;;;;;;;;;;;;;4941827;28;20021;-75
2023/11/22 13:42:52;;;;;;;;;;;;;;;;;;4930210;28;20037;-75
2023/11/22 13:45:19;;;;;;;;;;;;;;;;;;4928994;28;19997;-75
2023/11/22 13:47:48;;;;;;;;;;;;;;;;;;4943957;28;19964;-76
2023/11/22 13:50:15;;;;;;;;;;;;;;;;;;4945070;28;19961;-76
2023/11/22 13:52:42;;;;;;;;;;;;;;;;;;4942920;28;19918;-76
2023/11/22 13:55:10;;;;;;;;;;;;;;;;;;4944520;28;20051;-76
2023/11/22 13:57:36;;;;;;;;;;;;;;;;;;4940711;28;19925;-77
2023/11/22 14:00:07;;;;;;;;;;;;;;;;;;4932063;28;20244;-76
2023/11/22 14:02:32;;;;;;;;;;;;;;;;;;4927990;28;20432;-75
2023/11/22 14:04:59;;;;;;;;;;;;;;;;;;4944607;28;20256;-75
2023/11/22 14:07:27;;;;;;;;;;;;;;;;;;4934436;28;20624;-75
2023/11/22 14:09:53;;;;;;;;;;;;;;;;;;4930458;28;20024;-75
2023/11/22 14:12:22;;;;;;;;;;;;;;;;;;4946509;28;19922;-75
2023/11/22 14:14:48;;;;;;;;;;;;;;;;;;4930888;28;19925;-78
2023/11/22 14:17:14;;;;;;;;;;;;;;;;;;4934143;28;19919;-76
2023/11/22 14:19:43;;;;;;;;;;;;;;;;;;4933158;28;19929;-75
2023/11/22 14:22:09;;;;;;;;;;;;;;;;;;4932854;28;19926;-75
2023/11/22 14:24:38;;;;;;;;;;;;;;;;;;4932029;28;19982;-76
2023/11/22 14:27:04;;;;;;;;;;;;;;;;;;4931835;28;19993;-76
2023/11/22 14:29:31;;;;;;;;;;;;;;;;;;4937598;28;19948;-75
2023/11/22 14:31:57;;;;;;;;;;;;;;;;;;4947571;28;19922;-76
2023/11/22 14:34:23;;;;;;;;;;;;;;;;;;4930069;28;20672;-76
2023/11/22 14:36:49;;;;;;;;;;;;;;;;;;4925499;28;19929;-76
2023/11/22 14:39:15;;;;;;;;;;;;;;;;;;4943347;28;19949;-76
2023/11/22 14:41:41;;;;;;;;;;;;;;;;;;4922069;28;19934;-75
2023/11/22 14:44:09;;;;;;;;;;;;;;;;;;4942726;28;20381;-75
2023/11/22 14:46:36;;;;;;;;;;;;;;;;;;4937146;28;19925;-75
2023/11/22 14:49:03;;;;;;;;;;;;;;;;;;4929866;28;20297;-75
2023/11/22 14:51:28;;;;;;;;;;;;;;;;;;4926924;28;20502;-75
2023/11/22 14:53:55;;;;;;;;;;;;;;;;;;4929541;28;19918;-75
2023/11/22 14:56:22;;;;;;;;;;;;;;;;;;4938807;28;19918;-75
2023/11/22 14:58:53;;;;;;;;;;;;;;;;;;4923708;28;19918;-75
2023/11/22 15:01:19;;;;;;;;;;;;;;;;;;4941031;28;19925;-74
2023/11/22 15:03:46;;;;;;;;;;;;;;;;;;4941120;28;20366;-75
2023/11/22 15:06:12;;;;;;;;;;;;;;;;;;4938443;28;19930;-75
2023/11/22 15:08:39;;;;;;;;;;;;;;;;;;4925867;28;20118;-74
2023/11/22 15:11:07;;;;;;;;;;;;;;;;;;4926753;28;20405;-76
2023/11/22 15:13:33;;;;;;;;;;;;;;;;;;4942574;28;20333;-75
2023/11/22 15:15:59;;;;;;;;;;;;;;;;;;4944620;28;19950;-74
2023/11/22 15:18:27;;;;;;;;;;;;;;;;;;4942993;28;19918;-76
2023/11/22 15:20:53;;;;;;;;;;;;;;;;;;4924997;28;19918;-73
2023/11/22 15:23:22;;;;;;;;;;;;;;;;;;4931055;28;19949;-74
2023/11/22 15:25:48;;;;;;;;;;;;;;;;;;4940268;28;20443;-76
2023/11/22 15:28:22;;;;;;;;;;;;;;;;;;4924888;28;20157;-74
2023/11/22 15:30:58;;;;;;;;;;;;;;;;;;4922453;28;19981;-74
2023/11/22 15:33:24;;;;;;;;;;;;;;;;;;4945280;28;19918;-74
2023/11/22 15:35:50;;;;;;;;;;;;;;;;;;4939259;28;20546;-74
2023/11/22 15:38:16;;;;;;;;;;;;;;;;;;4945022;28;19914;-76
2023/11/22 15:40:42;;;;;;;;;;;;;;;;;;4939235;28;20175;-74
2023/11/22 15:43:08;;;;;;;;;;;;;;;;;;4944380;28;20240;-73
2023/11/22 15:45:35;;;;;;;;;;;;;;;;;;4941385;28;19925;-74
2023/11/22 15:48:01;;;;;;;;;;;;;;;;;;4930286;28;19982;-74
2023/11/22 15:50:27;;;;;;;;;;;;;;;;;;4927250;28;19928;-74
2023/11/22 15:52:53;;;;;;;;;;;;;;;;;;4941963;28;19958;-74
2023/11/22 15:55:19;;;;;;;;;;;;;;;;;;4943254;28;20013;-74
2023/11/22 15:57:45;;;;;;;;;;;;;;;;;;4938843;28;19964;-74
2023/11/22 16:00:11;;;;;;;;;;;;;;;;;;4947097;28;19953;-75
2023/11/22 16:02:37;;;;;;;;;;;;;;;;;;4939677;28;19973;-75
2023/11/22 16:05:03;;;;;;;;;;;;;;;;;;4943137;28;20785;-75
2023/11/22 16:07:29;;;;;;;;;;;;;;;;;;4930260;28;19918;-76
2023/11/22 16:09:55;;;;;;;;;;;;;;;;;;4933645;28;19953;-76
2023/11/22 16:12:21;;;;;;;;;;;;;;;;;;4931689;28;19918;-74
2023/11/22 16:14:47;;;;;;;;;;;;;;;;;;4942399;28;20010;-74
2023/11/22 16:17:13;;;;;;;;;;;;;;;;;;4931323;28;19918;-76
2023/11/22 16:19:39;;;;;;;;;;;;;;;;;;4941425;28;19933;-75
2023/11/22 16:22:05;;;;;;;;;;;;;;;;;;4927410;28;19917;-75
2023/11/22 16:24:31;;;;;;;;;;;;;;;;;;4940718;28;20379;-76
2023/11/22 16:26:59;;;;;;;;;;;;;;;;;;4940763;28;19926;-75
2023/11/22 16:29:25;;;;;;;;;;;;;;;;;;4927786;28;19941;-75
2023/11/22 16:31:51;;;;;;;;;;;;;;;;;;4928368;28;20008;-75
2023/11/22 16:34:17;;;;;;;;;;;;;;;;;;4940896;28;20397;-75
2023/11/22 16:36:43;;;;;;;;;;;;;;;;;;4941789;28;20827;-75
2023/11/22 16:39:10;;;;;;;;;;;;;;;;;;4942213;28;19981;-75
2023/11/22 16:41:36;;;;;;;;;;;;;;;;;;4937649;28;19961;-75